Time;durP1;ratioP1;P1;durP2;ratioP2;P2;SDS_P1;SDS_P2;PMS_P1;PMS_P2;Temp;Humidity;BMP_temperature;BMP_pressure;BME280_temperature;BME280_humidity;BME280_pressure;Samples;Min_cycle;Max_cycle;Signal;HPM_P1;HPM_P2
2021/12/01 00:01:54;;;;;;;1.60;1.20;;;9.40;98.20;;;;;;4895640;29;20710;-78
2021/12/01 00:04:20;;;;;;;1.63;1.20;;;9.40;98.20;;;;;;4902295;29;20477;-79
2021/12/01 00:06:47;;;;;;;1.60;1.20;;;9.40;98.20;;;;;;4887919;29;20496;-79
2021/12/01 00:09:14;;;;;;;1.60;1.10;;;9.40;98.20;;;;;;4902756;29;20476;-78
2021/12/01 00:11:41;;;;;;;1.63;1.20;;;9.30;98.20;;;;;;4889876;29;21009;-80
2021/12/01 00:14:08;;;;;;;1.60;1.20;;;9.40;98.20;;;;;;4908090;29;20475;-78
2021/12/01 00:16:35;;;;;;;1.60;1.20;;;9.40;98.20;;;;;;4882634;29;20494;-78
2021/12/01 00:19:03;;;;;;;1.60;1.10;;;9.40;98.20;;;;;;4904717;29;20642;-82
2021/12/01 00:21:30;;;;;;;1.60;1.20;;;9.40;98.20;;;;;;4885445;29;20494;-79
2021/12/01 00:23:57;;;;;;;1.67;1.20;;;9.40;98.20;;;;;;4900668;29;21902;-78
2021/12/01 00:26:24;;;;;;;1.60;1.20;;;9.40;98.20;;;;;;4892115;28;20508;-79
2021/12/01 00:28:51;;;;;;;1.60;1.20;;;9.40;98.20;;;;;;4907796;29;20563;-78
2021/12/01 00:31:18;;;;;;;1.63;1.20;;;9.40;98.20;;;;;;4890263;28;20476;-81
2021/12/01 00:33:45;;;;;;;1.60;1.20;;;9.40;98.20;;;;;;4912121;29;20553;-79
2021/12/01 00:36:15;;;;;;;1.60;1.13;;;9.40;98.20;;;;;;4887941;29;20547;-79
2021/12/01 00:38:43;;;;;;;1.70;1.30;;;9.40;98.20;;;;;;4902346;29;20521;-79
2021/12/01 00:41:11;;;;;;;1.60;1.20;;;9.40;98.20;;;;;;4892590;29;20499;-81
2021/12/01 00:43:39;;;;;;;1.60;1.20;;;9.40;98.20;;;;;;4913563;29;20553;-81
2021/12/01 00:46:13;;;;;;;1.60;1.20;;;9.40;98.20;;;;;;4884051;29;21009;-81
2021/12/01 00:48:41;;;;;;;1.70;1.30;;;9.40;98.20;;;;;;4919980;29;20847;-79
2021/12/01 00:51:08;;;;;;;1.60;1.10;;;9.40;98.20;;;;;;4895284;29;20486;-79
2021/12/01 00:53:37;;;;;;;1.60;1.20;;;9.40;98.20;;;;;;4915282;29;20476;-79
2021/12/01 00:56:05;;;;;;;1.63;1.20;;;9.40;98.20;;;;;;4893705;29;20493;-80
2021/12/01 00:58:32;;;;;;;1.60;1.20;;;9.40;98.20;;;;;;4908469;29;20616;-80
2021/12/01 01:01:01;;;;;;;1.60;1.20;;;9.40;98.20;;;;;;4888344;29;20478;-79
2021/12/01 01:03:30;;;;;;;1.60;1.20;;;9.40;98.20;;;;;;4915826;29;20899;-80
2021/12/01 01:05:57;;;;;;;1.60;1.20;;;9.40;98.20;;;;;;4889151;29;20540;-81
2021/12/01 01:08:25;;;;;;;1.60;1.20;;;9.40;98.20;;;;;;4914175;29;20541;-79
2021/12/01 01:16:22;;;;;;;1.60;1.20;;;9.40;98.20;;;;;;4889871;29;20974;-79
2021/12/01 01:16:45;;;;;;;1.63;1.20;;;9.40;98.20;;;;;;4891532;29;20580;-80
2021/12/01 01:19:14;;;;;;;1.60;1.17;;;9.40;98.20;;;;;;4907924;29;21035;-80
2021/12/01 01:21:47;;;;;;;1.60;1.20;;;9.40;98.20;;;;;;4894825;29;20493;-82
2021/12/01 01:24:14;;;;;;;1.60;1.20;;;9.40;98.20;;;;;;4907641;29;21119;-80
2021/12/01 01:26:42;;;;;;;1.60;1.20;;;9.40;98.20;;;;;;4894224;29;21065;-79
2021/12/01 01:29:09;;;;;;;1.60;1.20;;;9.50;98.20;;;;;;4901000;29;20518;-81
2021/12/01 01:31:37;;;;;;;1.63;1.30;;;9.40;98.20;;;;;;4893304;29;20488;-81
2021/12/01 01:34:05;;;;;;;1.63;1.20;;;9.50;98.20;;;;;;4910802;29;20943;-79
2021/12/01 01:36:32;;;;;;;1.63;1.30;;;9.50;98.20;;;;;;4892650;29;20500;-82
2021/12/01 01:38:59;;;;;;;1.60;1.20;;;9.50;98.20;;;;;;4912379;29;20496;-81
2021/12/01 01:41:27;;;;;;;1.63;1.20;;;9.50;98.20;;;;;;4889149;29;20489;-80
2021/12/01 01:43:55;;;;;;;1.60;1.20;;;9.50;98.20;;;;;;4910486;29;20479;-83
2021/12/01 01:46:22;;;;;;;1.60;1.20;;;9.50;98.20;;;;;;4892133;29;20488;-81
2021/12/01 01:48:50;;;;;;;1.60;1.10;;;9.50;98.20;;;;;;4912772;29;20488;-81
2021/12/01 01:51:19;;;;;;;1.60;1.20;;;9.50;98.20;;;;;;4885014;29;20538;-82
2021/12/01 01:53:48;;;;;;;1.60;1.20;;;9.50;98.20;;;;;;4910362;29;20468;-81
2021/12/01 01:56:16;;;;;;;1.60;1.20;;;9.50;98.20;;;;;;4891150;29;20480;-81
2021/12/01 01:58:43;;;;;;;1.60;1.20;;;9.50;98.20;;;;;;4904775;29;20923;-82
2021/12/01 02:01:20;;;;;;;1.63;1.20;;;9.50;98.20;;;;;;4889774;29;20486;-81
2021/12/01 02:03:49;;;;;;;1.70;1.30;;;9.40;98.20;;;;;;4909784;29;21008;-80
2021/12/01 02:06:22;;;;;;;1.60;1.20;;;9.40;98.20;;;;;;4888250;29;20521;-80
2021/12/01 02:08:50;;;;;;;1.67;1.20;;;9.40;98.20;;;;;;4912334;29;20457;-81
2021/12/01 02:11:19;;;;;;;1.60;1.20;;;9.40;98.20;;;;;;4888348;29;20480;-81
2021/12/01 02:13:46;;;;;;;1.60;1.20;;;9.40;98.20;;;;;;4914796;29;20474;-83
2021/12/01 02:16:15;;;;;;;1.60;1.20;;;9.40;98.20;;;;;;4894559;29;21065;-85
2021/12/01 02:18:42;;;;;;;1.60;1.20;;;9.40;98.20;;;;;;4916438;29;20580;-82
2021/12/01 02:21:13;;;;;;;1.63;1.30;;;9.40;98.20;;;;;;4893173;29;20492;-83
2021/12/01 02:23:43;;;;;;;1.60;1.20;;;9.40;98.20;;;;;;4916507;29;20532;-84
2021/12/01 02:26:10;;;;;;;1.70;1.40;;;9.40;98.20;;;;;;4896303;28;21104;-83
2021/12/01 02:28:39;;;;;;;1.60;1.20;;;9.40;98.20;;;;;;4908718;29;20476;-84
2021/12/01 02:31:06;;;;;;;1.60;1.20;;;9.40;98.20;;;;;;4890602;29;20522;-81
2021/12/01 02:33:33;;;;;;;1.60;1.13;;;9.40;98.20;;;;;;4903457;29;20849;-80
2021/12/01 02:36:00;;;;;;;1.60;1.20;;;9.40;98.20;;;;;;4888740;29;20493;-81
2021/12/01 02:38:29;;;;;;;1.60;1.13;;;9.40;98.20;;;;;;4900963;29;20971;-81
2021/12/01 02:40:56;;;;;;;1.60;1.20;;;9.30;98.20;;;;;;4882126;29;20524;-80
2021/12/01 02:43:24;;;;;;;1.60;1.20;;;9.30;98.20;;;;;;4912503;29;20469;-81
2021/12/01 02:45:53;;;;;;;1.63;1.30;;;9.30;98.20;;;;;;4887865;29;20529;-84
2021/12/01 02:48:20;;;;;;;1.70;1.30;;;9.30;98.20;;;;;;4911370;29;20489;-83
2021/12/01 02:50:47;;;;;;;1.60;1.20;;;9.30;98.20;;;;;;4891383;29;20694;-81
2021/12/01 02:53:14;;;;;;;1.60;1.20;;;9.30;98.20;;;;;;4913085;29;20480;-81
2021/12/01 02:55:53;;;;;;;1.60;1.20;;;9.30;98.20;;;;;;4903082;29;20940;-83
2021/12/01 02:58:22;;;;;;;1.60;1.20;;;9.30;98.20;;;;;;4888866;29;20977;-81
2021/12/01 03:00:50;;;;;;;1.67;1.23;;;9.30;98.20;;;;;;4886386;28;20532;-80
2021/12/01 03:03:18;;;;;;;1.60;1.20;;;9.30;98.20;;;;;;4909423;29;20461;-83
2021/12/01 03:05:47;;;;;;;1.70;1.40;;;9.30;98.20;;;;;;4897795;29;20500;-82
2021/12/01 03:08:15;;;;;;;1.70;1.40;;;9.20;98.20;;;;;;4892322;29;20902;-81
2021/12/01 03:10:44;;;;;;;1.60;1.20;;;9.30;98.20;;;;;;4895636;29;20549;-81
2021/12/01 03:13:11;;;;;;;1.60;1.20;;;9.20;98.20;;;;;;4911080;29;20519;-80
2021/12/01 03:15:38;;;;;;;1.63;1.20;;;9.20;98.20;;;;;;4901997;29;20994;-80
2021/12/01 03:18:05;;;;;;;1.60;1.23;;;9.20;98.20;;;;;;4911686;29;20607;-82
2021/12/01 03:20:32;;;;;;;6.20;4.90;;;9.20;98.20;;;;;;4900809;29;20497;-81
2021/12/01 03:22:59;;;;;;;1.60;1.30;;;9.20;98.20;;;;;;4902773;29;20599;-82
2021/12/01 03:25:27;;;;;;;2.13;1.93;;;9.20;98.20;;;;;;4905704;29;20494;-80
2021/12/01 03:27:55;;;;;;;1.70;1.30;;;9.20;98.20;;;;;;4907637;29;20640;-80
2021/12/01 03:30:23;;;;;;;1.60;1.20;;;9.20;98.20;;;;;;4901496;29;20890;-81
2021/12/01 03:32:50;;;;;;;1.60;1.20;;;9.20;98.20;;;;;;4908303;29;20493;-81
2021/12/01 03:35:17;;;;;;;1.60;1.20;;;9.20;98.20;;;;;;4898853;29;20588;-81
2021/12/01 03:37:46;;;;;;;1.60;1.20;;;9.20;98.20;;;;;;4905859;29;20544;-80
2021/12/01 03:40:15;;;;;;;1.60;1.20;;;9.20;98.20;;;;;;4898286;29;20503;-81
2021/12/01 03:42:44;;;;;;;1.60;1.20;;;9.20;98.20;;;;;;4898052;29;20513;-82
2021/12/01 03:45:15;;;;;;;1.70;1.10;;;9.20;98.20;;;;;;4903236;29;20705;-80
2021/12/01 03:47:42;;;;;;;1.60;1.20;;;9.20;98.20;;;;;;4898671;29;20587;-80
2021/12/01 03:50:09;;;;;;;1.60;1.20;;;9.20;98.20;;;;;;4897756;29;20550;-80
2021/12/01 03:52:36;;;;;;;1.60;1.20;;;9.20;98.20;;;;;;4896546;29;20493;-84
2021/12/01 03:55:05;;;;;;;1.60;1.17;;;9.20;98.20;;;;;;4909025;29;20497;-81
2021/12/01 03:57:32;;;;;;;1.60;1.20;;;9.20;98.20;;;;;;4900858;28;20926;-79
2021/12/01 03:59:59;;;;;;;1.67;1.20;;;9.10;98.20;;;;;;4908559;29;20520;-80
2021/12/01 04:02:27;;;;;;;1.67;1.30;;;9.10;98.20;;;;;;4891886;29;20489;-80
2021/12/01 04:04:54;;;;;;;1.60;1.20;;;9.10;98.20;;;;;;4903990;29;20871;-80
2021/12/01 04:07:21;;;;;;;1.70;1.40;;;9.10;98.20;;;;;;4898358;29;20946;-81
2021/12/01 04:09:48;;;;;;;1.63;1.20;;;9.10;98.20;;;;;;4906076;29;20466;-81
2021/12/01 04:12:15;;;;;;;1.60;1.20;;;9.10;98.20;;;;;;4894834;29;20484;-81
2021/12/01 04:14:42;;;;;;;1.70;1.50;;;9.10;98.20;;;;;;4911750;29;20489;-80
2021/12/01 04:17:09;;;;;;;1.60;1.20;;;9.10;98.20;;;;;;4894213;29;20499;-80
2021/12/01 04:19:38;;;;;;;2.27;2.07;;;9.10;98.20;;;;;;4908299;29;20520;-80
2021/12/01 04:22:06;;;;;;;1.63;1.30;;;9.10;98.20;;;;;;4893975;29;20498;-81
2021/12/01 04:24:33;;;;;;;1.70;1.30;;;9.10;98.20;;;;;;4905965;29;20517;-80
2021/12/01 04:27:00;;;;;;;1.60;1.20;;;9.10;98.20;;;;;;4903814;29;20600;-80
2021/12/01 04:29:27;;;;;;;1.63;1.23;;;9.00;98.20;;;;;;4907233;29;20897;-80
2021/12/01 04:31:54;;;;;;;1.60;1.20;;;9.00;98.20;;;;;;4895340;29;20485;-80
2021/12/01 04:34:21;;;;;;;1.60;1.20;;;9.00;98.20;;;;;;4904130;29;20469;-80
2021/12/01 04:36:51;;;;;;;1.60;1.20;;;9.00;98.20;;;;;;4893392;29;20497;-79
2021/12/01 04:39:19;;;;;;;1.70;1.40;;;9.00;98.20;;;;;;4898548;29;20561;-80
2021/12/01 04:41:52;;;;;;;1.63;1.20;;;9.00;98.20;;;;;;4896309;28;21038;-80
2021/12/01 04:44:21;;;;;;;1.60;1.20;;;9.00;98.20;;;;;;4900705;29;20545;-80
2021/12/01 04:46:49;;;;;;;1.60;1.20;;;9.00;98.20;;;;;;4890864;28;20535;-81
2021/12/01 04:49:18;;;;;;;1.60;1.20;;;9.00;98.20;;;;;;4899557;29;20548;-80
2021/12/01 04:51:47;;;;;;;1.60;1.30;;;9.00;98.20;;;;;;4892992;29;20492;-80
2021/12/01 04:54:17;;;;;;;1.60;1.20;;;9.00;98.20;;;;;;4908372;29;20496;-80
2021/12/01 04:56:46;;;;;;;1.60;1.20;;;9.00;98.20;;;;;;4895327;28;20675;-81
2021/12/01 04:59:13;;;;;;;1.70;1.40;;;9.00;98.20;;;;;;4896554;29;20501;-81
2021/12/01 05:01:41;;;;;;;1.63;1.20;;;9.00;98.20;;;;;;4890818;29;20494;-82
2021/12/01 05:04:09;;;;;;;1.60;1.20;;;9.00;98.20;;;;;;4908971;29;20468;-79
2021/12/01 05:06:37;;;;;;;1.60;1.10;;;9.00;98.20;;;;;;4891349;29;20499;-80
2021/12/01 05:09:04;;;;;;;1.60;1.20;;;9.00;98.20;;;;;;4912734;29;20481;-79
2021/12/01 05:11:33;;;;;;;1.60;1.20;;;9.00;98.20;;;;;;4888253;29;20863;-80
2021/12/01 05:13:59;;;;;;;1.70;1.30;;;9.00;98.20;;;;;;4907975;29;20468;-80
2021/12/01 05:16:26;;;;;;;1.70;1.30;;;9.00;98.20;;;;;;4886403;29;21038;-81
2021/12/01 05:18:53;;;;;;;1.60;1.20;;;9.00;98.20;;;;;;4910649;29;20575;-80
2021/12/01 05:21:21;;;;;;;1.60;1.20;;;9.00;98.20;;;;;;4887124;29;20510;-81
2021/12/01 05:23:48;;;;;;;1.60;1.20;;;9.00;98.20;;;;;;4902251;29;20473;-79
2021/12/01 05:26:17;;;;;;;1.60;1.20;;;9.00;98.20;;;;;;4890655;28;20758;-83
2021/12/01 05:28:45;;;;;;;1.60;1.20;;;9.00;98.20;;;;;;4914054;29;20469;-80
2021/12/01 05:31:13;;;;;;;1.60;1.20;;;8.90;98.20;;;;;;4896330;29;23059;-82
2021/12/01 05:33:40;;;;;;;1.60;1.20;;;9.00;98.20;;;;;;4908630;29;20469;-78
2021/12/01 05:36:08;;;;;;;1.60;1.20;;;8.90;98.20;;;;;;4889691;29;20522;-80
2021/12/01 05:38:35;;;;;;;1.60;1.20;;;8.90;98.20;;;;;;4905760;29;20493;-78
2021/12/01 05:41:03;;;;;;;1.60;1.20;;;8.90;98.20;;;;;;4887946;29;20489;-77
2021/12/01 05:43:30;;;;;;;1.60;1.20;;;8.80;98.20;;;;;;4911878;29;20509;-77
2021/12/01 05:45:59;;;;;;;1.60;1.23;;;8.80;98.20;;;;;;4882861;29;20592;-76
2021/12/01 05:48:26;;;;;;;1.60;1.20;;;8.80;98.20;;;;;;4913092;29;20465;-76
2021/12/01 05:50:53;;;;;;;1.60;1.20;;;8.80;98.20;;;;;;4887485;29;20461;-79
2021/12/01 05:53:20;;;;;;;1.60;1.20;;;8.70;98.20;;;;;;4905054;29;20474;-76
2021/12/01 05:55:47;;;;;;;1.70;1.43;;;8.70;98.20;;;;;;4893592;29;20576;-77
2021/12/01 05:58:14;;;;;;;1.60;1.20;;;8.60;98.20;;;;;;4907609;29;20504;-76
2021/12/01 06:00:41;;;;;;;1.60;1.13;;;8.60;98.20;;;;;;4893181;29;20486;-77
2021/12/01 06:03:09;;;;;;;1.60;1.20;;;8.60;98.20;;;;;;4896206;29;20500;-77
2021/12/01 06:05:36;;;;;;;1.60;1.20;;;8.60;98.20;;;;;;4894525;29;20946;-76
2021/12/01 06:08:04;;;;;;;1.60;1.13;;;8.50;98.20;;;;;;4894778;29;21035;-78
2021/12/01 06:10:31;;;;;;;1.60;1.20;;;8.50;98.20;;;;;;4896862;29;20569;-78
2021/12/01 06:12:58;;;;;;;1.60;1.20;;;8.50;98.20;;;;;;4901426;29;20941;-79
2021/12/01 06:15:26;;;;;;;1.80;1.60;;;8.50;98.20;;;;;;4895529;29;20522;-81
2021/12/01 06:17:53;;;;;;;1.60;1.20;;;8.50;98.20;;;;;;4896763;29;20571;-79
2021/12/01 06:20:21;;;;;;;1.60;1.20;;;8.50;98.20;;;;;;4896249;29;20576;-79
2021/12/01 06:22:49;;;;;;;1.60;1.20;;;8.50;98.20;;;;;;4900408;29;20548;-78
2021/12/01 06:25:17;;;;;;;1.60;1.30;;;8.50;98.20;;;;;;4899176;29;20575;-81
2021/12/01 06:27:43;;;;;;;1.70;1.30;;;8.50;98.20;;;;;;4891736;28;21113;-78
2021/12/01 06:30:12;;;;;;;1.70;1.30;;;8.50;98.20;;;;;;4899044;29;20469;-81
2021/12/01 06:32:39;;;;;;;1.63;1.30;;;8.60;98.20;;;;;;4891010;29;20494;-81
2021/12/01 06:35:07;;;;;;;1.60;1.30;;;8.50;98.20;;;;;;4895905;29;20492;-78
2021/12/01 06:37:35;;;;;;;1.60;1.20;;;8.60;98.20;;;;;;4894070;29;20488;-79
2021/12/01 06:40:02;;;;;;;1.60;1.20;;;8.60;98.20;;;;;;4899811;29;20501;-77
2021/12/01 06:42:29;;;;;;;1.60;1.20;;;8.60;98.20;;;;;;4891499;29;20494;-81
2021/12/01 06:44:56;;;;;;;1.60;1.20;;;8.60;98.20;;;;;;4903549;29;21037;-83
2021/12/01 06:47:23;;;;;;;1.60;1.20;;;8.60;98.20;;;;;;4898338;29;20543;-83
2021/12/01 06:49:50;;;;;;;1.60;1.20;;;8.60;98.20;;;;;;4904690;29;20461;-80
2021/12/01 06:52:17;;;;;;;1.67;1.30;;;8.60;98.20;;;;;;4892281;29;21079;-81
2021/12/01 06:54:46;;;;;;;1.60;1.20;;;8.70;98.20;;;;;;4900104;29;20880;-79
2021/12/01 06:57:13;;;;;;;1.67;1.30;;;8.70;98.20;;;;;;4888577;29;20491;-80
2021/12/01 06:59:40;;;;;;;1.60;1.10;;;8.70;98.20;;;;;;4891523;29;20474;-78
2021/12/01 07:02:06;;;;;;;1.60;1.30;;;8.70;98.20;;;;;;4894662;29;20552;-78
2021/12/01 07:04:34;;;;;;;1.60;1.20;;;8.70;98.20;;;;;;4903343;29;20489;-79
2021/12/01 07:07:00;;;;;;;1.60;1.30;;;8.70;98.20;;;;;;4895536;29;20547;-79
2021/12/01 07:09:27;;;;;;;1.60;1.30;;;8.80;98.20;;;;;;4906308;29;20480;-79
2021/12/01 07:11:56;;;;;;;1.60;1.17;;;8.80;98.20;;;;;;4891723;29;20495;-79
2021/12/01 07:14:23;;;;;;;1.60;1.20;;;8.80;98.20;;;;;;4904262;29;20950;-80
2021/12/01 07:16:50;;;;;;;1.60;1.20;;;8.90;98.20;;;;;;4888973;29;20909;-79
2021/12/01 07:19:17;;;;;;;1.60;1.20;;;8.90;98.20;;;;;;4901801;29;20831;-82
2021/12/01 07:21:44;;;;;;;1.60;1.20;;;8.90;98.20;;;;;;4892524;28;20489;-85
2021/12/01 07:24:12;;;;;;;1.60;1.20;;;9.00;98.20;;;;;;4901752;29;22143;-80
2021/12/01 07:26:39;;;;;;;1.70;1.30;;;9.00;98.20;;;;;;4892923;28;20507;-79
2021/12/01 07:29:07;;;;;;;1.63;1.30;;;9.00;98.20;;;;;;4905599;29;20993;-81
2021/12/01 07:31:34;;;;;;;1.60;1.30;;;9.10;98.20;;;;;;4891473;29;21026;-81
2021/12/01 07:34:01;;;;;;;1.60;1.20;;;9.10;98.20;;;;;;4903840;29;20973;-79
2021/12/01 07:36:29;;;;;;;1.60;1.20;;;9.20;98.20;;;;;;4889185;29;20578;-88
2021/12/01 07:38:57;;;;;;;1.60;1.20;;;9.30;98.20;;;;;;4916154;29;20465;-82
2021/12/01 07:41:24;;;;;;;1.60;1.20;;;9.30;98.20;;;;;;4889592;29;20501;-80
2021/12/01 07:43:51;;;;;;;1.60;1.20;;;9.40;98.20;;;;;;4910286;29;20469;-84
2021/12/01 07:46:20;;;;;;;1.60;1.30;;;9.40;98.20;;;;;;4895288;29;20492;-80
2021/12/01 07:48:47;;;;;;;1.60;1.20;;;9.50;98.20;;;;;;4912332;29;20552;-80
2021/12/01 07:51:14;;;;;;;1.60;1.20;;;9.50;98.20;;;;;;4892337;29;20551;-78
2021/12/01 07:53:41;;;;;;;1.60;1.10;;;9.50;98.20;;;;;;4906190;29;20843;-77
2021/12/01 07:56:08;;;;;;;1.60;1.13;;;9.60;98.20;;;;;;4887690;29;20952;-78
2021/12/01 07:58:35;;;;;;;1.60;1.17;;;9.60;98.20;;;;;;4907475;29;20707;-77
2021/12/01 08:01:03;;;;;;;1.60;1.20;;;9.60;98.20;;;;;;4886002;29;20963;-78
2021/12/01 08:03:31;;;;;;;1.60;1.20;;;9.60;98.20;;;;;;4905788;29;20473;-78
2021/12/01 08:05:58;;;;;;;1.60;1.20;;;9.60;98.20;;;;;;4885260;29;20831;-78
2021/12/01 08:08:25;;;;;;;1.67;1.20;;;9.60;98.20;;;;;;4916218;29;20980;-77
2021/12/01 08:10:52;;;;;;;1.63;1.20;;;9.60;98.20;;;;;;4887025;29;20473;-77
2021/12/01 08:13:19;;;;;;;1.60;1.20;;;9.60;98.20;;;;;;4896346;29;20477;-79
2021/12/01 08:15:47;;;;;;;1.60;1.20;;;9.70;98.20;;;;;;4892343;29;20905;-80
2021/12/01 08:18:14;;;;;;;1.63;1.20;;;9.70;98.20;;;;;;4912442;29;20496;-80
2021/12/01 08:20:43;;;;;;;1.70;1.40;;;9.70;98.20;;;;;;4894644;29;20493;-79
2021/12/01 08:23:10;;;;;;;1.60;1.20;;;9.70;98.20;;;;;;4901892;29;21025;-78
2021/12/01 08:25:38;;;;;;;1.60;1.20;;;9.70;98.20;;;;;;4897233;29;20490;-79
2021/12/01 08:28:05;;;;;;;1.60;1.20;;;9.70;98.20;;;;;;4901780;28;20980;-80
2021/12/01 08:30:33;;;;;;;1.60;1.07;;;9.70;98.20;;;;;;4895838;29;20971;-80
2021/12/01 08:33:00;;;;;;;1.60;1.20;;;9.70;98.20;;;;;;4900146;29;21012;-78
2021/12/01 08:35:28;;;;;;;1.60;1.20;;;9.70;98.20;;;;;;4892598;29;20520;-78
2021/12/01 08:37:56;;;;;;;1.60;1.10;;;9.70;98.20;;;;;;4893414;29;21035;-80
2021/12/01 08:40:23;;;;;;;1.70;1.30;;;9.70;98.20;;;;;;4899233;29;20549;-80
2021/12/01 08:42:50;;;;;;;1.70;1.40;;;9.80;98.20;;;;;;4896789;29;20493;-82
2021/12/01 08:45:18;;;;;;;1.63;1.30;;;9.80;98.20;;;;;;4892581;29;20493;-81
2021/12/01 08:47:48;;;;;;;1.60;1.20;;;9.80;98.20;;;;;;4890422;29;20495;-81
2021/12/01 08:50:15;;;;;;;1.67;1.30;;;9.90;98.20;;;;;;4901453;29;20465;-82
2021/12/01 08:52:44;;;;;;;1.60;1.17;;;9.90;98.20;;;;;;4889696;29;20484;-77
2021/12/01 08:55:30;;;;;;;1.60;1.20;;;9.90;98.20;;;;;;4895503;29;20611;-80
2021/12/01 08:57:57;;;;;;;1.63;1.20;;;10.00;98.20;;;;;;4901992;28;20725;-80
2021/12/01 09:00:24;;;;;;;1.60;1.20;;;10.00;98.20;;;;;;4893975;29;20470;-79
2021/12/01 09:02:52;;;;;;;1.60;1.20;;;10.00;98.20;;;;;;4893262;29;20557;-79
2021/12/01 09:05:19;;;;;;;1.67;1.20;;;10.00;98.20;;;;;;4896855;29;20524;-76
2021/12/01 09:07:46;;;;;;;1.60;1.20;;;10.00;98.20;;;;;;4893254;29;20485;-76
2021/12/01 09:10:13;;;;;;;1.60;1.10;;;10.00;98.20;;;;;;4896495;29;20474;-77
2021/12/01 09:12:43;;;;;;;1.60;1.17;;;10.00;98.20;;;;;;4891356;29;20497;-78
2021/12/01 09:15:13;;;;;;;1.70;1.30;;;10.00;98.20;;;;;;4892672;29;20501;-76
2021/12/01 09:17:40;;;;;;;1.60;1.20;;;10.00;98.20;;;;;;4900563;29;20744;-79
2021/12/01 09:20:09;;;;;;;1.60;1.20;;;10.00;98.20;;;;;;4895801;29;20647;-76
2021/12/01 09:22:36;;;;;;;1.60;1.20;;;10.00;98.20;;;;;;4895266;29;20552;-75
2021/12/01 09:25:03;;;;;;;1.60;1.20;;;9.90;98.20;;;;;;4897794;29;20584;-77
2021/12/01 09:27:31;;;;;;;1.60;1.10;;;9.90;98.20;;;;;;4892800;29;20938;-77
2021/12/01 09:29:59;;;;;;;1.63;1.20;;;9.90;98.20;;;;;;4896982;29;20576;-77
2021/12/01 09:32:26;;;;;;;1.63;1.20;;;9.90;98.20;;;;;;4890391;28;20489;-77
2021/12/01 09:34:53;;;;;;;1.60;1.10;;;9.90;98.20;;;;;;4894396;29;20516;-76
2021/12/01 09:37:20;;;;;;;1.60;1.20;;;9.90;98.20;;;;;;4889802;29;21181;-77
2021/12/01 09:39:48;;;;;;;1.60;1.10;;;9.80;98.20;;;;;;4897181;29;20473;-76
2021/12/01 09:42:15;;;;;;;1.60;1.20;;;9.80;98.20;;;;;;4889870;29;20583;-76
2021/12/01 09:44:42;;;;;;;1.60;1.20;;;9.90;98.20;;;;;;4899660;29;20508;-79
2021/12/01 09:47:11;;;;;;;1.70;1.33;;;9.90;98.20;;;;;;4892327;29;20576;-79
2021/12/01 09:49:38;;;;;;;1.60;1.20;;;9.90;98.20;;;;;;4901549;29;20470;-77
2021/12/01 09:52:08;;;;;;;1.60;1.10;;;9.90;98.20;;;;;;4887281;29;20571;-78
2021/12/01 09:54:36;;;;;;;1.70;1.50;;;10.00;98.20;;;;;;4897976;29;20923;-79
2021/12/01 09:57:03;;;;;;;1.60;1.20;;;10.00;98.20;;;;;;4887820;28;20489;-79
2021/12/01 09:59:30;;;;;;;1.60;1.17;;;10.00;98.20;;;;;;4893575;29;20470;-79
2021/12/01 10:01:58;;;;;;;1.60;1.20;;;10.10;98.20;;;;;;4893335;29;20523;-78
2021/12/01 10:04:28;;;;;;;1.70;1.30;;;10.10;98.20;;;;;;4904540;29;21167;-80
2021/12/01 10:07:13;;;;;;;1.60;1.20;;;10.10;98.20;;;;;;4884042;29;20523;-77
2021/12/01 10:09:43;;;;;;;1.60;1.20;;;10.10;98.20;;;;;;4898663;29;20496;-78
2021/12/01 10:12:11;;;;;;;1.60;1.10;;;10.10;98.20;;;;;;4886837;29;20493;-77
2021/12/01 10:14:39;;;;;;;1.63;1.20;;;10.20;98.20;;;;;;4895995;29;20950;-77
2021/12/01 10:17:06;;;;;;;1.60;1.17;;;10.20;98.20;;;;;;4888680;29;20855;-78
2021/12/01 10:19:35;;;;;;;1.60;1.10;;;10.20;98.20;;;;;;4897439;29;20481;-77
2021/12/01 10:22:09;;;;;;;1.60;1.20;;;10.20;98.20;;;;;;4886480;29;20488;-79
2021/12/01 10:24:37;;;;;;;1.60;1.10;;;10.20;98.20;;;;;;4894665;29;20508;-76
2021/12/01 10:27:11;;;;;;;1.60;1.10;;;10.20;98.20;;;;;;4891436;29;20502;-79
2021/12/01 10:29:43;;;;;;;1.60;1.20;;;10.20;98.20;;;;;;4897640;29;20465;-81
2021/12/01 10:32:15;;;;;;;1.60;1.13;;;10.20;98.20;;;;;;4893963;29;20564;-81
2021/12/01 10:34:47;;;;;;;1.60;1.20;;;10.20;98.20;;;;;;4892210;29;20517;-81
2021/12/01 10:37:22;;;;;;;1.60;1.10;;;10.20;98.20;;;;;;4887507;29;20500;-82
2021/12/01 10:40:03;;;;;;;1.60;1.20;;;10.20;98.20;;;;;;4894146;29;20884;-78
2021/12/01 10:42:31;;;;;;;1.60;1.20;;;10.30;98.20;;;;;;4888363;28;20503;-78
2021/12/01 10:45:00;;;;;;;1.60;1.20;;;10.30;98.20;;;;;;4890849;29;20557;-79
2021/12/01 10:47:38;;;;;;;1.60;1.10;;;10.40;98.20;;;;;;4890363;29;20625;-79
2021/12/01 10:50:07;;;;;;;1.60;1.20;;;10.40;98.20;;;;;;4892838;29;20478;-81
2021/12/01 10:52:36;;;;;;;1.60;1.10;;;10.40;98.20;;;;;;4890584;29;20487;-79
2021/12/01 10:55:07;;;;;;;1.60;1.10;;;10.40;98.20;;;;;;4893306;29;20511;-80
2021/12/01 10:57:39;;;;;;;1.60;1.10;;;10.40;98.20;;;;;;4890319;29;20495;-81
2021/12/01 11:00:14;;;;;;;1.60;1.20;;;10.40;98.20;;;;;;4890263;29;20477;-80
2021/12/01 11:02:41;;;;;;;1.60;1.10;;;10.40;98.20;;;;;;4889413;29;20491;-83
2021/12/01 11:05:10;;;;;;;1.60;1.10;;;10.50;98.20;;;;;;4886999;29;20497;-80
2021/12/01 11:07:37;;;;;;;1.60;1.20;;;10.50;98.20;;;;;;4883923;29;20826;-80
2021/12/01 11:10:18;;;;;;;1.60;1.10;;;10.50;98.20;;;;;;4891041;29;20474;-80
2021/12/01 11:12:53;;;;;;;1.67;1.13;;;10.50;98.20;;;;;;4893336;29;21061;-81
2021/12/01 11:15:23;;;;;;;1.63;1.20;;;10.60;98.20;;;;;;4891875;29;20927;-78
2021/12/01 11:17:52;;;;;;;1.60;1.20;;;10.60;98.20;;;;;;4893245;29;20556;-80
2021/12/01 11:20:43;;;;;;;1.60;1.20;;;10.60;98.20;;;;;;4900072;29;20967;-82
2021/12/01 11:23:16;;;;;;;1.60;1.17;;;10.70;98.20;;;;;;4899954;29;20512;-83
2021/12/01 11:25:45;;;;;;;1.60;1.10;;;10.70;98.20;;;;;;4899138;29;20493;-80
2021/12/01 11:28:14;;;;;;;1.60;1.10;;;10.70;98.20;;;;;;4899278;28;20500;-85
2021/12/01 11:30:43;;;;;;;1.63;1.20;;;10.70;98.20;;;;;;4896507;29;20896;-82
2021/12/01 11:33:13;;;;;;;1.63;1.17;;;10.80;98.20;;;;;;4895591;29;21177;-80
2021/12/01 11:35:42;;;;;;;1.63;1.10;;;10.80;98.20;;;;;;4896936;29;20576;-80
2021/12/01 11:38:11;;;;;;;1.60;1.10;;;10.90;98.20;;;;;;4895118;29;20700;-81
2021/12/01 11:40:38;;;;;;;1.60;1.10;;;10.90;98.20;;;;;;4899265;29;20477;-81
2021/12/01 11:43:08;;;;;;;1.60;1.20;;;11.00;98.20;;;;;;4904709;29;20492;-79
2021/12/01 11:45:37;;;;;;;1.60;1.10;;;11.00;98.20;;;;;;4896564;29;20496;-80
2021/12/01 11:48:05;;;;;;;1.60;1.10;;;10.90;98.20;;;;;;4908194;29;20566;-83
2021/12/01 11:50:36;;;;;;;1.70;1.23;;;10.90;98.20;;;;;;4895459;29;20533;-78
2021/12/01 11:53:18;;;;;;;1.60;1.10;;;10.80;98.20;;;;;;4898381;29;20486;-80
2021/12/01 11:55:56;;;;;;;1.63;1.20;;;10.70;98.20;;;;;;4894625;29;20584;-77
2021/12/01 11:59:01;;;;;;;1.60;1.10;;;10.70;98.20;;;;;;4884119;29;20488;-79
2021/12/01 12:01:56;;;;;;;1.60;1.17;;;10.60;98.20;;;;;;4875154;29;20599;-80
2021/12/01 12:04:29;;;;;;;1.60;1.10;;;10.50;98.20;;;;;;4898384;29;20477;-77
2021/12/01 12:07:01;;;;;;;1.60;1.20;;;10.40;98.20;;;;;;4897907;29;21023;-77
2021/12/01 12:09:31;;;;;;;1.60;1.10;;;10.30;98.20;;;;;;4899309;29;20479;-76
2021/12/01 12:12:17;;;;;;;1.63;1.13;;;10.30;98.20;;;;;;4887088;29;20504;-77
2021/12/01 12:14:53;;;;;;;1.60;1.13;;;10.30;98.20;;;;;;4901323;29;20498;-78
2021/12/01 12:17:35;;;;;;;1.63;1.10;;;10.20;98.20;;;;;;4895300;29;20495;-79
2021/12/01 12:20:15;;;;;;;1.63;1.20;;;10.20;98.20;;;;;;4898841;29;20525;-79
2021/12/01 12:23:01;;;;;;;1.70;1.20;;;10.10;98.20;;;;;;4897260;28;20951;-78
2021/12/01 12:25:47;;;;;;;1.60;1.10;;;10.00;98.20;;;;;;4897670;29;21019;-81
2021/12/01 12:28:30;;;;;;;3.50;2.63;;;9.90;98.20;;;;;;4879237;29;20488;-80
2021/12/01 12:31:01;;;;;;;1.60;1.20;;;9.90;98.20;;;;;;4888379;28;20515;-81
2021/12/01 12:33:31;;;;;;;1.70;1.23;;;9.90;98.20;;;;;;4902900;29;20472;-81
2021/12/01 12:36:01;;;;;;;1.60;1.13;;;9.80;98.20;;;;;;4887774;29;20596;-84
2021/12/01 12:38:29;;;;;;;1.70;1.30;;;9.80;98.20;;;;;;4913020;29;20479;-82
2021/12/01 12:41:10;;;;;;;1.60;1.10;;;9.70;98.20;;;;;;4881346;29;20930;-83
2021/12/01 12:43:39;;;;;;;1.67;1.23;;;9.70;98.20;;;;;;4909246;29;20481;-84
2021/12/01 12:46:09;;;;;;;1.60;1.20;;;9.60;98.20;;;;;;4895338;29;21015;-88
2021/12/01 12:48:39;;;;;;;1.70;1.30;;;9.60;98.20;;;;;;4911372;29;20524;-84
2021/12/01 12:51:21;;;;;;;1.67;1.30;;;9.60;98.20;;;;;;4886115;29;20482;-85
2021/12/01 12:54:19;;;;;;;1.70;1.30;;;9.60;98.20;;;;;;4901725;29;20486;-85
2021/12/01 12:56:56;;;;;;;1.60;1.20;;;9.60;98.20;;;;;;4827253;29;20706;-86
2021/12/01 12:59:32;;;;;;;1.60;1.20;;;9.60;98.20;;;;;;4887421;29;20568;-86
2021/12/01 13:02:32;;;;;;;1.63;1.17;;;9.60;98.20;;;;;;4892619;29;20984;-81
2021/12/01 13:05:05;;;;;;;1.67;1.20;;;9.60;98.20;;;;;;4896252;29;20497;-83
2021/12/01 13:07:46;;;;;;;1.60;1.20;;;9.60;98.20;;;;;;4893877;29;20485;-86
2021/12/01 13:10:18;;;;;;;1.60;1.20;;;9.50;98.20;;;;;;4894584;29;20560;-82